Sunday, July 22, 2018, 2:47 AM EDT
Back to Local

KLBE, Latrobe / Westmorland

Location: Latrobe, PA, United States Lat: 40.283
Local Time: 2:47 AM EDT ( 6:47 GMT) Lon: -79.4
Time Zone: US/Eastern Elev: 1184 ft

Show me the last for .
Show Decoded

2018-07-22 02:35 METAR KLBE 220635Z AUTO 02005KT 10SM SCT017 OVC065 17/16 A2978 RMK AO2 =
2018-07-22 02:15 METAR KLBE 220615Z AUTO 36005KT 10SM SCT065 BKN090 BKN120 17/16 A2978 RMK AO2 =
2018-07-22 01:55 METAR KLBE 220555Z AUTO 02006KT 10SM BKN020 BKN090 BKN110 17/16 A2978 RMK AO2 =
2018-07-22 01:35 METAR KLBE 220535Z AUTO 01004KT 10SM OVC020 17/15 A2979 RMK AO2 =
2018-07-22 01:15 METAR KLBE 220515Z AUTO 01005KT 10SM BKN021 BKN090 17/15 A2980 RMK AO2 =
2018-07-22 00:55 METAR KLBE 220455Z AUTO 01008KT 10SM FEW023 SCT095 17/15 A2980 RMK AO2 =
2018-07-22 00:35 METAR KLBE 220435Z AUTO 01005KT 10SM SCT100 17/15 A2981 RMK AO2 =
2018-07-22 00:15 METAR KLBE 220415Z AUTO 36005KT 10SM OVC100 18/15 A2981 RMK AO2 =
2018-07-21 23:55 METAR KLBE 220355Z AUTO 03006KT 10SM OVC100 18/15 A2982 RMK AO2 =
2018-07-21 23:35 METAR KLBE 220335Z AUTO 03006G12KT 10SM OVC100 18/15 A2982 RMK AO2 =
2018-07-21 23:15 METAR KLBE 220315Z AUTO 03007KT 10SM OVC100 18/16 A2983 RMK AO2 =
2018-07-21 22:55 METAR KLBE 220255Z AUTO 04008KT 10SM BKN100 19/16 A2984 RMK AO2 =
2018-07-21 22:35 METAR KLBE 220235Z AUTO 06006KT 10SM FEW100 19/16 A2985 RMK AO2 =
2018-07-21 22:15 METAR KLBE 220215Z AUTO 05009KT 10SM CLR 19/16 A2985 RMK AO2 =
2018-07-21 21:50 METAR KLBE 220150Z 08008KT 10SM FEW080 19/16 A2986 =
2018-07-21 20:50 METAR KLBE 220050Z 06013KT 10SM BKN023 20/16 A2986 =
2018-07-21 18:50 METAR KLBE 212250Z 06010KT 10SM SCT024 BKN030 21/17 A2987 =
2018-07-21 17:50 METAR KLBE 212150Z 12015G22KT 10SM BKN060 23/17 A2985 =
2018-07-21 16:50 METAR KLBE 212050Z 12015KT 10SM FEW060 23/17 A2985 =
2018-07-21 15:50 METAR KLBE 211950Z 11015KT 10SM SCT075 23/18 A2986 =
2018-07-21 14:50 METAR KLBE 211850Z 10007KT 10SM BKN060 22/18 A2988 =
2018-07-21 13:50 METAR KLBE 211750Z 15008KT 10SM BKN040 23/17 A2990 =
2018-07-21 12:50 METAR KLBE 211650Z 19010KT 10SM SCT038 BKN050 24/17 A2991 =
2018-07-21 11:50 METAR KLBE 211550Z 16015G25KT 10SM BKN060 24/17 A2989 =
2018-07-21 10:50 METAR KLBE 211450Z 16015G25KT 10SM BKN050 25/17 A2990 =
2018-07-21 09:50 METAR KLBE 211350Z 15015G25KT 10SM SCT040 BKN100 23/17 A2990 =
2018-07-21 08:50 METAR KLBE 211250Z 15015G25KT 10SM BKN100 21/16 A2992 =
2018-07-21 07:50 METAR KLBE 211150Z 15010G22KT 10SM BKN090 21/16 A2992 =
2018-07-21 06:50 METAR KLBE 211050Z 15010G22KT 10SM BKN100 21/15 A2990 =
2018-07-21 05:55 METAR KLBE 210955Z AUTO 12009G15KT 10SM SCT110 20/15 A2990 RMK AO2 =
2018-07-21 05:35 METAR KLBE 210935Z AUTO 12006G13KT 10SM BKN110 20/15 A2989 RMK AO2 =
2018-07-21 05:15 METAR KLBE 210915Z AUTO VRB06G11KT 10SM BKN120 20/15 A2990 RMK AO2 =
2018-07-21 04:55 METAR KLBE 210855Z AUTO 12009G15KT 10SM BKN120 21/15 A2990 RMK AO2 =
2018-07-21 04:35 METAR KLBE 210835Z AUTO 14009KT 10SM BKN120 21/16 A2991 RMK AO2 =
2018-07-21 04:15 METAR KLBE 210815Z AUTO 14012G17KT 10SM SCT100 BKN120 21/16 A2990 RMK AO2 =
2018-07-21 03:55 METAR KLBE 210755Z AUTO 14010G19KT 10SM FEW100 21/16 A2991 RMK AO2 =
2018-07-21 03:35 METAR KLBE 210735Z AUTO 13008G17KT 10SM BKN120 21/16 A2991 RMK AO2 =
2018-07-21 03:15 METAR KLBE 210715Z AUTO 13013KT 10SM BKN120 22/16 A2991 RMK AO2 =
2018-07-21 02:55 METAR KLBE 210655Z AUTO 12008G17KT 10SM CLR 21/16 A2992 RMK AO2 =

Support USWX by starting your Amazon purchase here.